Time;durP1;ratioP1;P1;durP2;ratioP2;P2;SDS_P1;SDS_P2;PMS_P1;PMS_P2;Temp;Humidity;BMP_temperature;BMP_pressure;BME280_temperature;BME280_humidity;BME280_pressure;Samples;Min_cycle;Max_cycle;Signal;HPM_P1;HPM_P2
2022/11/28 00:01:43;;;;;;;0.10;0.10;;;;;;;9.69;69.45;99460.38;7364272;19;19930;-56
2022/11/28 00:04:09;;;;;;;;;;;;;;;9.79;68.60;99471.31;7366980;19;20044;-58
2022/11/28 00:06:37;;;;;;;0.00;0.00;;;;;;;9.75;69.29;99474.94;7364472;19;20321;-57
2022/11/28 00:09:03;;;;;;;0.00;0.00;;;;;;;9.71;69.67;99478.56;7365530;19;20863;-57
2022/11/28 00:11:29;;;;;;;0.00;0.00;;;;;;;9.52;69.34;99458.41;7365112;19;20107;-57
2022/11/28 00:13:54;;;;;;;0.00;0.00;;;;;;;9.67;69.32;99476.97;7365541;19;20018;-57
2022/11/28 00:16:21;;;;;;;0.10;0.10;;;;;;;9.66;69.06;99476.13;7365743;19;20011;-57
2022/11/28 00:18:48;;;;;;;0.00;0.00;;;;;;;9.65;69.16;99484.00;7365438;19;20098;-58
2022/11/28 00:21:14;;;;;;;0.00;0.00;;;;;;;9.55;69.36;99463.50;7364725;19;20425;-58
2022/11/28 00:23:41;;;;;;;0.10;0.10;;;;;;;9.59;69.54;99470.31;7363609;19;20460;-58
2022/11/28 00:26:11;;;;;;;0.00;0.00;;;;;;;9.63;69.20;99473.66;7366720;19;20018;-57
2022/11/28 00:28:37;;;;;;;0.00;0.00;;;;;;;9.61;69.60;99472.84;7364133;19;20018;-58
2022/11/28 00:31:03;;;;;;;0.08;0.08;;;;;;;9.60;69.48;99466.78;7365324;19;22191;-58
2022/11/28 00:33:31;;;;;;;0.10;0.10;;;;;;;9.53;69.41;99454.91;7364556;19;20046;-58
2022/11/28 00:35:59;;;;;;;0.00;0.00;;;;;;;9.58;69.28;99462.56;7364865;19;20014;-57
2022/11/28 00:38:24;;;;;;;0.00;0.00;;;;;;;9.36;69.34;99437.28;7365278;19;20019;-56
2022/11/28 00:41:00;;;;;;;0.00;0.00;;;;;;;9.59;69.49;99474.69;7361255;19;20014;-58
2022/11/28 00:43:26;;;;;;;0.00;0.00;;;;;;;9.52;69.43;99458.41;7361989;19;20002;-58
2022/11/28 00:45:52;;;;;;;0.00;0.00;;;;;;;9.51;69.11;99461.94;7365509;19;25262;-57
2022/11/28 00:48:17;;;;;;;0.00;0.00;;;;;;;9.54;69.54;99464.44;7363996;19;20011;-58
2022/11/28 00:50:42;;;;;;;0.00;0.00;;;;;;;9.53;69.40;99460.13;7365381;19;20119;-57
2022/11/28 00:53:08;;;;;;;0.00;0.00;;;;;;;9.39;68.86;99425.94;7364748;19;20469;-58
2022/11/28 00:55:33;;;;;;;0.10;0.10;;;;;;;9.53;68.96;99449.72;7363701;19;20006;-58
2022/11/28 00:57:59;;;;;;;0.00;0.00;;;;;;;9.48;68.73;99428.19;7364355;19;20038;-58
2022/11/28 01:00:24;;;;;;;0.10;0.10;;;;;;;9.52;69.00;99439.31;7363870;19;20035;-58
2022/11/28 01:02:49;;;;;;;0.00;0.00;;;;;;;9.48;68.96;99428.19;7364744;19;20002;-58
2022/11/28 01:05:15;;;;;;;0.00;0.00;;;;;;;9.48;68.67;99422.97;7360595;19;20013;-58
2022/11/28 01:07:41;;;;;;;0.00;0.00;;;;;;;9.54;68.52;99420.13;7363614;19;20006;-57
2022/11/28 01:10:09;;;;;;;0.00;0.00;;;;;;;9.56;68.11;99423.50;7363901;19;20089;-58
2022/11/28 01:12:34;;;;;;;0.00;0.00;;;;;;;9.55;68.39;99419.22;7365257;19;20047;-57
2022/11/28 01:15:00;;;;;;;0.00;0.00;;;;;;;9.58;68.06;99424.31;7363772;19;20805;-58
2022/11/28 01:17:25;;;;;;;0.08;0.08;;;;;;;9.57;68.34;99414.78;7362071;19;20014;-57
2022/11/28 01:19:50;;;;;;;0.00;0.00;;;;;;;9.58;67.97;99415.66;7362325;19;20103;-57
2022/11/28 01:22:16;;;;;;;0.10;0.10;;;;;;;9.28;68.41;99370.78;7364091;19;20043;-58
2022/11/28 01:24:41;;;;;;;0.00;0.00;;;;;;;9.55;68.01;99415.75;7364943;19;20500;-57
2022/11/28 01:27:07;;;;;;;0.10;0.10;;;;;;;9.55;68.17;99413.16;7363271;19;20017;-57
2022/11/28 01:29:32;;;;;;;0.00;0.00;;;;;;;9.56;67.58;99412.25;7361945;19;20029;-57
2022/11/28 01:31:57;;;;;;;0.00;0.00;;;;;;;9.48;68.13;99409.94;7364415;19;20031;-55
2022/11/28 01:34:23;;;;;;;0.00;0.00;;;;;;;9.45;68.15;99404.84;7363272;19;21011;-58
2022/11/28 01:36:48;;;;;;;0.00;0.00;;;;;;;9.53;67.90;99417.56;7361794;19;20462;-58
2022/11/28 01:39:14;;;;;;;0.08;0.08;;;;;;;9.51;68.33;99420.22;7363929;19;20024;-56
2022/11/28 01:41:40;;;;;;;0.00;0.00;;;;;;;9.50;68.36;99413.31;7362088;19;20035;-56
2022/11/28 01:44:14;;;;;;;0.00;0.00;;;;;;;9.52;67.91;99421.06;7363449;19;20017;-58
2022/11/28 01:46:40;;;;;;;0.00;0.00;;;;;;;9.21;68.07;99377.97;7360591;19;20002;-56
2022/11/28 01:49:14;;;;;;;0.10;0.10;;;;;;;9.39;68.11;99409.44;7363818;19;21129;-57
2022/11/28 01:51:43;;;;;;;0.10;0.10;;;;;;;9.46;67.96;99422.16;7360556;19;20010;-59
2022/11/28 01:54:09;;;;;;;0.00;0.00;;;;;;;9.43;68.16;99422.31;7362622;19;20129;-58
2022/11/28 01:56:43;;;;;;;0.10;0.10;;;;;;;9.45;68.22;99428.28;7363061;19;20082;-59
2022/11/28 01:59:13;;;;;;;0.00;0.00;;;;;;;9.44;68.17;99444.00;7361125;19;20041;-58
2022/11/28 02:01:39;;;;;;;0.10;0.10;;;;;;;9.37;68.51;99432.94;7363178;19;20010;-58
2022/11/28 02:04:05;;;;;;;0.00;0.00;;;;;;;9.29;68.51;99427.19;7359554;19;20727;-60
2022/11/28 02:06:31;;;;;;;0.10;0.10;;;;;;;9.34;68.46;99433.06;7361910;19;20454;-57
2022/11/28 02:08:56;;;;;;;0.00;0.00;;;;;;;9.29;68.40;99438.44;7363047;19;20010;-57
2022/11/28 02:11:31;;;;;;;0.00;0.00;;;;;;;9.36;68.98;99452.09;7362260;19;20006;-57
2022/11/28 02:14:05;;;;;;;0.10;0.10;;;;;;;9.36;68.65;99455.53;7359737;19;20006;-58
2022/11/28 02:17:08;;;;;;;0.00;0.00;;;;;;;9.35;68.45;99456.44;7363619;19;20678;-58
2022/11/28 02:19:58;;;;;;;0.10;0.10;;;;;;;9.34;68.39;99464.34;7272872;19;2004328;-58
2022/11/28 02:22:26;;;;;;;0.00;0.00;;;;;;;9.30;68.90;99467.94;7374502;19;20010;-58
2022/11/28 02:25:02;;;;;;;0.00;0.00;;;;;;;9.20;69.13;99450.97;7377454;19;20010;-58
2022/11/28 02:28:07;;;;;;;0.00;0.00;;;;;;;9.28;68.72;99469.78;7375318;19;20006;-58
2022/11/28 02:30:33;;;;;;;0.03;0.03;;;;;;;9.24;68.45;99457.75;7272980;19;2004263;-58
2022/11/28 02:33:12;;;;;;;0.00;0.00;;;;;;;9.25;69.04;99459.47;7375849;19;20020;-56
2022/11/28 02:35:51;;;;;;;0.08;0.08;;;;;;;9.23;69.07;99461.28;7376178;19;20461;-58
2022/11/28 02:38:40;;;;;;;0.00;0.00;;;;;;;9.23;68.60;99466.50;7375638;19;20017;-58
2022/11/28 02:41:35;;;;;;;0.00;0.00;;;;;;;9.11;68.43;99449.53;7378459;19;20017;-56
2022/11/28 02:44:06;;;;;;;0.00;0.00;;;;;;;9.16;68.88;99465.00;7272630;19;2004262;-58
2022/11/28 02:46:43;;;;;;;0.00;0.00;;;;;;;9.15;69.01;99463.31;7379347;19;20029;-58
2022/11/28 02:49:29;;;;;;;0.00;0.00;;;;;;;9.13;69.12;99465.97;7372765;19;20357;-58
2022/11/28 02:52:02;;;;;;;0.05;0.05;;;;;;;9.10;69.18;99464.31;7375793;19;20018;-58
2022/11/28 02:54:30;;;;;;;0.00;0.00;;;;;;;9.07;69.58;99467.06;7375815;19;21036;-58
2022/11/28 02:56:56;;;;;;;0.10;0.10;;;;;;;9.05;69.38;99468.00;7374319;19;20074;-57
2022/11/28 02:59:37;;;;;;;0.03;0.03;;;;;;;9.06;68.92;99472.28;7367323;19;20788;-55
2022/11/28 03:02:22;;;;;;;0.00;0.00;;;;;;;9.03;69.67;99462.84;7376142;19;20630;-58
2022/11/28 03:04:58;;;;;;;0.00;0.00;;;;;;;9.00;69.26;99459.50;7377302;19;20014;-58
2022/11/28 03:07:45;;;;;;;0.00;0.00;;;;;;;8.99;69.03;99455.22;7373519;19;20010;-58
2022/11/28 03:10:32;;;;;;;0.00;0.00;;;;;;;8.97;69.40;99454.41;7376735;19;20604;-58
2022/11/28 03:13:25;;;;;;;0.10;0.10;;;;;;;8.95;69.01;99448.41;7374092;19;20359;-58
2022/11/28 03:15:50;;;;;;;0.00;0.00;;;;;;;8.91;69.43;99447.66;7273775;19;2004596;-58
2022/11/28 03:18:25;;;;;;;0.00;0.00;;;;;;;8.82;69.24;99435.84;7372983;19;20007;-57
2022/11/28 03:21:05;;;;;;;0.00;0.00;;;;;;;8.73;69.60;99419.69;7375998;19;20011;-59
2022/11/28 03:23:36;;;;;;;0.00;0.00;;;;;;;8.82;69.17;99445.41;7375041;19;20017;-57
2022/11/28 03:26:15;;;;;;;0.00;0.00;;;;;;;8.79;69.39;99445.50;7375533;19;20010;-58
2022/11/28 03:28:52;;;;;;;0.00;0.00;;;;;;;8.83;69.38;99453.16;7369538;19;20476;-58
2022/11/28 03:31:32;;;;;;;0.00;0.00;;;;;;;8.72;69.50;99439.69;7366629;19;20296;-58
2022/11/28 03:33:59;;;;;;;0.00;0.00;;;;;;;8.73;69.98;99451.78;7366901;19;20035;-58
2022/11/28 03:36:29;;;;;;;0.00;0.00;;;;;;;8.71;70.17;99447.50;7367397;19;20033;-57
2022/11/28 03:39:03;;;;;;;0.00;0.00;;;;;;;8.68;69.98;99438.09;7366938;19;20123;-58
2022/11/28 03:41:35;;;;;;;0.10;0.10;;;;;;;8.61;70.26;99430.53;7365623;19;20010;-57
2022/11/28 03:44:02;;;;;;;0.00;0.00;;;;;;;8.73;70.11;99451.78;7361270;19;20018;-58
2022/11/28 03:46:37;;;;;;;0.00;0.00;;;;;;;8.70;69.66;99451.88;7367362;19;20010;-58
2022/11/28 03:49:06;;;;;;;0.00;0.00;;;;;;;8.61;70.00;99451.34;7364863;19;20014;-58
2022/11/28 03:51:37;;;;;;;0.00;0.00;;;;;;;8.70;70.18;99461.44;7365402;19;20045;-57
2022/11/28 03:54:12;;;;;;;0.00;0.00;;;;;;;8.68;69.77;99469.31;7362681;19;20006;-57
2022/11/28 03:56:56;;;;;;;0.00;0.00;;;;;;;8.65;70.32;99460.75;7368149;19;20010;-57
2022/11/28 03:59:51;;;;;;;0.10;0.10;;;;;;;8.56;69.18;99446.28;7365551;19;20011;-58
2022/11/28 04:02:46;;;;;;;0.00;0.00;;;;;;;8.64;69.89;99464.25;7264399;19;2004389;-58
2022/11/28 04:05:40;;;;;;;0.00;0.00;;;;;;;8.64;69.89;99472.06;7252979;19;2004465;-57
2022/11/28 04:08:25;;;;;;;0.00;0.00;;;;;;;8.62;69.96;99473.84;7260471;19;2005186;-58
2022/11/28 04:11:18;;;;;;;0.08;0.08;;;;;;;8.61;70.07;99477.38;7364027;19;20038;-57
2022/11/28 04:13:52;;;;;;;0.00;0.00;;;;;;;8.57;70.41;99474.03;7260530;19;2004657;-57
2022/11/28 04:16:34;;;;;;;0.00;0.00;;;;;;;8.46;70.27;99469.16;7362182;19;20018;-58
2022/11/28 04:19:13;;;;;;;0.00;0.00;;;;;;;8.53;70.06;99481.09;7352074;19;21897;-56
2022/11/28 04:22:06;;;;;;;0.10;0.10;;;;;;;8.52;69.84;99484.59;7361136;19;20091;-58
2022/11/28 04:24:37;;;;;;;0.00;0.00;;;;;;;8.49;70.15;99483.84;7259562;19;2004557;-57
2022/11/28 04:27:07;;;;;;;0.00;0.00;;;;;;;8.47;70.60;99491.72;7358780;19;20002;-56
2022/11/28 04:29:38;;;;;;;0.00;0.00;;;;;;;8.42;69.97;99498.81;7360103;19;20022;-58
2022/11/28 04:32:05;;;;;;;0.00;0.00;;;;;;;8.44;70.56;99503.97;7361236;19;20747;-58
2022/11/28 04:34:33;;;;;;;0.00;0.00;;;;;;;8.16;69.89;99450.22;7357763;19;20023;-58
2022/11/28 04:37:00;;;;;;;0.03;0.03;;;;;;;8.40;69.99;99487.59;7358998;19;20011;-58
2022/11/28 04:39:29;;;;;;;0.00;0.00;;;;;;;8.40;69.93;99505.81;7358409;19;20006;-58
2022/11/28 04:42:18;;;;;;;0.00;0.00;;;;;;;8.28;69.95;99475.81;7363264;19;20404;-57
2022/11/28 04:44:51;;;;;;;0.00;0.00;;;;;;;8.45;69.58;99514.31;7362550;19;20006;-57
2022/11/28 04:47:17;;;;;;;0.00;0.00;;;;;;;8.39;70.41;99501.50;7361370;19;20034;-58
2022/11/28 04:49:43;;;;;;;0.00;0.00;;;;;;;8.42;70.17;99493.63;7363957;19;25507;-58
2022/11/28 04:52:27;;;;;;;0.00;0.00;;;;;;;8.48;70.16;99503.81;7361159;19;20091;-57
2022/11/28 04:55:21;;;;;;;0.00;0.00;;;;;;;8.49;69.69;99500.31;7365700;19;20798;-58
2022/11/28 04:57:55;;;;;;;0.10;0.10;;;;;;;8.49;70.18;99500.31;7264817;19;2004396;-57
2022/11/28 05:00:21;;;;;;;0.10;0.10;;;;;;;8.48;70.49;99509.00;7366332;19;20010;-58
2022/11/28 05:02:51;;;;;;;0.00;0.00;;;;;;;8.52;70.26;99505.41;7366967;19;20014;-57
2022/11/28 05:05:24;;;;;;;0.00;0.00;;;;;;;8.52;69.99;99508.00;7364427;19;20006;-58
2022/11/28 05:07:51;;;;;;;0.00;0.00;;;;;;;8.32;70.42;99484.38;7366237;19;20007;-58
2022/11/28 05:10:16;;;;;;;0.10;0.10;;;;;;;8.43;70.23;99495.31;7364399;19;20062;-58
2022/11/28 05:12:42;;;;;;;0.00;0.00;;;;;;;8.47;70.14;99504.72;7366815;19;20752;-58
2022/11/28 05:15:08;;;;;;;0.10;0.10;;;;;;;8.46;70.19;99510.78;7366102;19;20002;-57
2022/11/28 05:17:34;;;;;;;0.00;0.00;;;;;;;8.54;70.35;99527.00;7364604;19;20017;-58
2022/11/28 05:19:59;;;;;;;0.10;0.10;;;;;;;8.55;70.39;99533.91;7365433;19;20018;-58
2022/11/28 05:22:25;;;;;;;0.00;0.00;;;;;;;8.54;70.03;99527.00;7365646;19;20022;-58
2022/11/28 05:24:51;;;;;;;0.00;0.00;;;;;;;8.55;70.20;99531.31;7364802;19;20018;-57
2022/11/28 05:27:16;;;;;;;0.00;0.00;;;;;;;8.52;70.66;99526.22;7365214;19;20010;-58
2022/11/28 05:29:43;;;;;;;0.00;0.00;;;;;;;8.57;70.17;99528.69;7365036;19;20043;-58
2022/11/28 05:32:10;;;;;;;0.00;0.00;;;;;;;8.53;69.94;99512.31;7365925;19;20035;-58
2022/11/28 05:34:36;;;;;;;0.03;0.03;;;;;;;8.47;70.46;99507.31;7363910;19;20025;-58
2022/11/28 05:37:02;;;;;;;0.10;0.10;;;;;;;8.56;70.64;99522.59;7366266;19;20510;-59
2022/11/28 05:39:28;;;;;;;0.03;0.03;;;;;;;8.33;70.17;99491.28;7364253;19;20094;-58
2022/11/28 05:41:54;;;;;;;0.00;0.00;;;;;;;8.54;70.81;99523.56;7365664;19;20241;-58
2022/11/28 05:44:20;;;;;;;0.00;0.00;;;;;;;8.53;70.09;99543.53;7362760;19;20010;-58
2022/11/28 05:46:45;;;;;;;0.00;0.00;;;;;;;8.46;70.45;99530.75;7364138;19;20037;-57
2022/11/28 05:49:11;;;;;;;0.00;0.00;;;;;;;8.51;70.54;99545.31;7366167;19;20013;-58
2022/11/28 05:51:36;;;;;;;0.10;0.10;;;;;;;8.37;70.44;99531.94;7363807;19;20014;-58
2022/11/28 05:54:02;;;;;;;0.08;0.08;;;;;;;8.48;70.14;99547.19;7361841;19;20469;-58
2022/11/28 05:56:27;;;;;;;0.00;0.00;;;;;;;8.34;70.50;99529.38;7364891;19;20002;-58
2022/11/28 05:58:53;;;;;;;0.00;0.00;;;;;;;8.46;70.48;99565.44;7365101;19;20021;-56
2022/11/28 06:01:25;;;;;;;0.05;0.05;;;;;;;8.46;70.19;99562.81;7364755;19;19998;-57
2022/11/28 06:03:56;;;;;;;0.00;0.00;;;;;;;8.43;70.33;99552.53;7364429;19;20029;-58
2022/11/28 06:06:23;;;;;;;0.00;0.00;;;;;;;8.42;70.32;99556.03;7364844;19;20014;-57
2022/11/28 06:08:50;;;;;;;0.00;0.00;;;;;;;8.27;70.33;99530.50;7364006;19;20019;-57
2022/11/28 06:11:16;;;;;;;0.00;0.00;;;;;;;8.39;70.47;99550.94;7364908;19;20111;-58
2022/11/28 06:13:42;;;;;;;0.00;0.00;;;;;;;8.38;70.71;99554.44;7361661;19;20601;-56
2022/11/28 06:16:10;;;;;;;0.10;0.10;;;;;;;8.28;70.60;99538.25;7363874;19;20010;-57
2022/11/28 06:18:35;;;;;;;0.03;0.03;;;;;;;8.37;70.74;99565.75;7363120;19;20010;-56
2022/11/28 06:21:02;;;;;;;0.00;0.00;;;;;;;8.35;70.86;99570.09;7365533;19;22592;-58
2022/11/28 06:23:28;;;;;;;0.00;0.00;;;;;;;8.26;71.03;99563.47;7362295;19;20534;-58
2022/11/28 06:25:53;;;;;;;0.03;0.03;;;;;;;8.20;70.60;99558.44;7365364;19;22393;-58
2022/11/28 06:28:19;;;;;;;0.05;0.05;;;;;;;8.36;70.71;99590.03;7361646;19;20011;-58
2022/11/28 06:30:44;;;;;;;0.00;0.00;;;;;;;8.17;70.69;99566.34;7365908;19;20010;-58
2022/11/28 06:33:09;;;;;;;0.00;0.00;;;;;;;8.24;71.16;99577.41;7363712;19;20014;-58
2022/11/28 06:35:35;;;;;;;0.00;0.00;;;;;;;8.34;70.65;99604.81;7363605;19;20021;-58
2022/11/28 06:38:00;;;;;;;0.00;0.00;;;;;;;8.01;70.75;99552.97;7363827;19;20011;-58
2022/11/28 06:40:26;;;;;;;0.00;0.00;;;;;;;8.29;70.97;99602.34;7365464;19;20014;-58
2022/11/28 06:42:51;;;;;;;0.00;0.00;;;;;;;8.22;71.43;99587.00;7364696;19;20014;-58
2022/11/28 06:45:17;;;;;;;0.00;0.00;;;;;;;8.16;70.96;99587.16;7362800;19;20018;-58
2022/11/28 06:47:42;;;;;;;0.10;0.10;;;;;;;8.15;71.13;99588.91;7363051;19;20049;-58
2022/11/28 06:50:09;;;;;;;0.10;0.10;;;;;;;7.99;71.22;99559.94;7363762;19;20370;-58
2022/11/28 06:52:34;;;;;;;0.10;0.10;;;;;;;8.34;71.64;99628.22;7363778;19;20429;-58
2022/11/28 06:55:00;;;;;;;0.00;0.00;;;;;;;8.36;71.29;99631.66;7362590;19;20078;-57
2022/11/28 06:57:25;;;;;;;0.10;0.10;;;;;;;8.35;71.36;99627.31;7362351;19;20013;-58
2022/11/28 06:59:54;;;;;;;0.00;0.00;;;;;;;8.40;71.65;99630.66;7355254;19;20026;-57
2022/11/28 07:02:19;;;;;;;0.00;0.00;;;;;;;8.34;71.86;99625.63;7363465;19;20358;-58
2022/11/28 07:04:44;;;;;;;0.00;0.00;;;;;;;8.41;71.43;99640.16;7366446;19;20006;-58
2022/11/28 07:07:10;;;;;;;0.00;0.00;;;;;;;8.39;71.51;99634.19;7366617;19;20078;-56
2022/11/28 07:09:35;;;;;;;0.00;0.00;;;;;;;8.47;71.49;99636.56;7366572;19;20573;-58
2022/11/28 07:12:01;;;;;;;0.00;0.00;;;;;;;8.52;71.48;99661.53;7366747;19;20359;-57
2022/11/28 07:14:26;;;;;;;0.00;0.00;;;;;;;8.44;71.35;99647.03;7361071;19;20018;-58
2022/11/28 07:16:52;;;;;;;0.10;0.10;;;;;;;8.58;71.04;99673.50;7361945;19;20014;-56
2022/11/28 07:19:21;;;;;;;0.10;0.10;;;;;;;8.16;71.44;99611.44;7361290;19;20126;-56
2022/11/28 07:21:48;;;;;;;0.10;0.10;;;;;;;8.51;71.25;99667.59;7360292;19;20014;-58
2022/11/28 07:24:15;;;;;;;0.00;0.00;;;;;;;8.57;71.06;99679.59;7363003;19;20649;-58
2022/11/28 07:26:40;;;;;;;0.10;0.10;;;;;;;8.60;71.54;99689.06;7360177;19;20021;-57
2022/11/28 07:29:06;;;;;;;0.10;0.10;;;;;;;8.61;71.14;99690.75;7359466;19;20006;-58
2022/11/28 07:31:32;;;;;;;0.10;0.10;;;;;;;8.62;71.44;99689.84;7361682;19;20018;-57
2022/11/28 07:33:59;;;;;;;0.10;0.10;;;;;;;8.63;71.34;99700.22;7361495;19;20030;-57
2022/11/28 07:36:27;;;;;;;0.00;0.00;;;;;;;8.65;71.60;99702.78;7362354;19;20466;-57
2022/11/28 07:38:58;;;;;;;0.00;0.00;;;;;;;8.67;71.15;99695.75;7362065;19;20015;-57
2022/11/28 07:41:24;;;;;;;0.00;0.00;;;;;;;8.57;71.61;99685.66;7366238;19;20025;-58
2022/11/28 07:43:56;;;;;;;0.10;0.10;;;;;;;8.67;71.32;99704.44;7361635;19;20018;-58
2022/11/28 07:46:22;;;;;;;0.00;0.00;;;;;;;8.50;71.51;99684.13;7368210;19;20734;-58
2022/11/28 07:48:47;;;;;;;0.00;0.00;;;;;;;8.68;71.36;99713.94;7368671;19;20105;-57
2022/11/28 07:51:16;;;;;;;0.00;0.00;;;;;;;8.68;71.79;99703.53;7365931;19;20015;-58
2022/11/28 07:53:42;;;;;;;0.00;0.00;;;;;;;8.70;71.51;99711.28;7358184;19;20661;-58
2022/11/28 07:56:13;;;;;;;0.00;0.00;;;;;;;8.73;71.73;99712.06;7362391;19;20473;-58
2022/11/28 07:58:40;;;;;;;0.03;0.03;;;;;;;8.62;72.09;99692.44;7364645;19;20018;-58
2022/11/28 08:01:14;;;;;;;0.00;0.00;;;;;;;8.77;71.59;99712.81;7365467;19;20454;-55
2022/11/28 08:03:40;;;;;;;0.00;0.00;;;;;;;8.64;71.61;99701.06;7358727;19;20010;-58
2022/11/28 08:06:06;;;;;;;0.10;0.10;;;;;;;8.66;71.51;99704.47;7351965;19;20042;-58
2022/11/28 08:08:32;;;;;;;0.00;0.00;;;;;;;8.75;71.54;99725.00;7354537;19;20612;-58
2022/11/28 08:10:59;;;;;;;0.00;0.00;;;;;;;8.67;71.40;99706.16;7364179;19;20015;-58
2022/11/28 08:13:24;;;;;;;0.00;0.00;;;;;;;8.80;71.50;99736.13;7364794;19;20431;-58
2022/11/28 08:15:49;;;;;;;0.00;0.00;;;;;;;8.79;71.66;99732.69;7364068;19;21350;-58
2022/11/28 08:18:15;;;;;;;0.00;0.00;;;;;;;8.81;71.19;99735.22;7361078;19;20091;-57
2022/11/28 08:20:40;;;;;;;0.00;0.00;;;;;;;8.81;71.40;99745.63;7360121;19;20652;-57
2022/11/28 08:23:06;;;;;;;0.00;0.00;;;;;;;8.69;71.95;99726.06;7362009;19;20737;-59
2022/11/28 08:25:32;;;;;;;0.00;0.00;;;;;;;8.83;71.97;99749.06;7361500;19;20038;-58
2022/11/28 08:27:57;;;;;;;0.05;0.05;;;;;;;8.80;72.08;99754.34;7365485;19;20039;-58
2022/11/28 08:30:23;;;;;;;0.10;0.10;;;;;;;8.76;71.90;99744.94;7364278;19;20034;-58
2022/11/28 08:32:49;;;;;;;0.00;0.00;;;;;;;8.91;71.32;99783.50;7353662;19;20006;-58
2022/11/28 08:35:14;;;;;;;0.10;0.10;;;;;;;8.91;71.68;99777.47;7354185;19;20011;-57
2022/11/28 08:37:40;;;;;;;0.00;0.00;;;;;;;8.93;71.67;99771.31;7353540;19;20791;-56
2022/11/28 08:40:06;;;;;;;0.00;0.00;;;;;;;8.83;71.80;99764.69;7364116;19;20520;-56
2022/11/28 08:42:31;;;;;;;0.03;0.03;;;;;;;8.93;72.01;99781.72;7354061;19;20030;-57
2022/11/28 08:44:57;;;;;;;0.08;0.08;;;;;;;8.93;71.48;99781.72;7364713;19;20010;-57
2022/11/28 08:47:22;;;;;;;0.00;0.00;;;;;;;8.99;71.90;99791.09;7359852;19;20365;-57
2022/11/28 08:49:48;;;;;;;0.00;0.00;;;;;;;9.01;71.96;99797.09;7362609;19;20082;-58
2022/11/28 08:52:13;;;;;;;0.00;0.00;;;;;;;8.54;71.68;99727.38;7360144;19;20010;-56
2022/11/28 08:54:39;;;;;;;0.08;0.08;;;;;;;9.05;71.96;99811.75;7363455;19;20671;-58
2022/11/28 08:57:05;;;;;;;0.00;0.00;;;;;;;8.89;71.98;99782.72;7360187;19;20013;-58
2022/11/28 08:59:30;;;;;;;0.00;0.00;;;;;;;9.07;72.07;99813.41;7363160;19;20731;-58
2022/11/28 09:01:55;;;;;;;0.00;0.00;;;;;;;9.12;71.81;99820.22;7362307;19;20688;-58
2022/11/28 09:04:22;;;;;;;0.00;0.00;;;;;;;9.05;71.98;99811.75;7361383;19;20014;-60
2022/11/28 09:06:48;;;;;;;0.00;0.00;;;;;;;9.14;71.79;99826.25;7361907;19;20006;-58
2022/11/28 09:09:13;;;;;;;0.00;0.00;;;;;;;9.11;71.73;99827.19;7363383;19;20014;-57
2022/11/28 09:11:39;;;;;;;0.00;0.00;;;;;;;9.12;72.09;99828.03;7359525;19;20014;-58
2022/11/28 09:14:05;;;;;;;0.00;0.00;;;;;;;9.19;71.86;99851.25;7363379;19;20011;-58
2022/11/28 09:16:30;;;;;;;0.00;0.00;;;;;;;9.08;71.85;99835.94;7361477;19;20018;-57
2022/11/28 09:18:57;;;;;;;0.00;0.00;;;;;;;9.20;72.03;99850.34;7363414;19;20018;-57
2022/11/28 09:21:23;;;;;;;0.10;0.10;;;;;;;9.24;72.03;99861.53;7360974;19;20022;-56
2022/11/28 09:23:48;;;;;;;0.00;0.00;;;;;;;9.10;71.70;99839.34;7360165;19;20014;-58
2022/11/28 09:26:18;;;;;;;0.00;0.00;;;;;;;9.28;72.04;99870.97;7357549;19;20013;-58
2022/11/28 09:28:44;;;;;;;0.00;0.00;;;;;;;9.30;72.32;99875.22;7360854;19;20097;-58
2022/11/28 09:31:11;;;;;;;0.05;0.05;;;;;;;9.34;72.19;99881.19;7361089;19;20656;-57
2022/11/28 09:33:36;;;;;;;0.10;0.10;;;;;;;9.37;71.78;99888.88;7362045;19;20010;-58
2022/11/28 09:36:08;;;;;;;0.00;0.00;;;;;;;9.41;71.98;99887.91;7358921;19;20480;-57
2022/11/28 09:38:34;;;;;;;0.00;0.00;;;;;;;9.39;72.24;99878.44;7360115;19;20754;-58
2022/11/28 09:41:01;;;;;;;0.10;0.10;;;;;;;9.47;72.31;99902.50;7359245;19;20014;-58
2022/11/28 09:43:36;;;;;;;0.03;0.03;;;;;;;9.46;71.84;99896.44;7363411;19;20024;-56
2022/11/28 09:46:08;;;;;;;0.10;0.10;;;;;;;9.55;72.04;99906.56;7361384;19;20491;-57
2022/11/28 09:48:38;;;;;;;0.05;0.05;;;;;;;9.58;72.12;99906.50;7360904;19;20047;-57
2022/11/28 09:51:22;;;;;;;0.00;0.00;;;;;;;9.64;71.89;99910.66;7360277;19;20014;-57
2022/11/28 09:53:57;;;;;;;0.00;0.00;;;;;;;9.66;71.87;99929.69;7357371;19;20360;-57
2022/11/28 09:56:22;;;;;;;0.00;0.00;;;;;;;9.65;72.03;99927.16;7361707;19;20872;-57
2022/11/28 09:58:54;;;;;;;0.00;0.00;;;;;;;9.70;71.90;99930.47;7357306;19;25180;-58
2022/11/28 10:01:22;;;;;;;0.00;0.00;;;;;;;9.75;71.71;99936.38;7358906;19;20107;-58
2022/11/28 10:04:12;;;;;;;0.00;0.00;;;;;;;9.80;71.69;99947.53;7360184;19;20441;-57
2022/11/28 10:06:52;;;;;;;0.10;0.10;;;;;;;9.84;71.63;99949.13;7357647;19;20035;-58
2022/11/28 10:09:42;;;;;;;0.00;0.00;;;;;;;9.88;71.90;99961.16;7360397;19;20820;-57
2022/11/28 10:12:55;;;;;;;0.10;0.10;;;;;;;9.91;71.56;99970.66;7360198;19;20030;-55
2022/11/28 10:15:42;;;;;;;0.00;0.00;;;;;;;9.93;72.07;99972.28;7253612;19;2004207;-58
2022/11/28 10:18:42;;;;;;;0.05;0.05;;;;;;;9.97;71.91;99983.50;7358426;19;20049;-58
2022/11/28 10:21:11;;;;;;;0.10;0.10;;;;;;;9.96;72.27;99985.25;7259196;19;2004156;-57
2022/11/28 10:23:44;;;;;;;0.00;0.00;;;;;;;9.98;71.96;99988.66;7358004;19;20022;-57
2022/11/28 10:26:34;;;;;;;0.00;0.00;;;;;;;10.02;71.78;100000.69;7359438;19;20026;-55
2022/11/28 10:29:06;;;;;;;0.10;0.10;;;;;;;9.98;72.09;99988.66;7357882;19;20840;-58
2022/11/28 10:31:43;;;;;;;0.00;0.00;;;;;;;10.12;72.17;99996.03;7357430;19;20787;-58
2022/11/28 10:34:56;;;;;;;0.00;0.00;;;;;;;10.20;72.05;100004.50;7358988;19;20475;-57
2022/11/28 10:37:32;;;;;;;0.00;0.00;;;;;;;10.24;72.43;100015.69;7253988;19;2004938;-58
2022/11/28 10:40:15;;;;;;;0.00;0.00;;;;;;;10.31;72.25;100014.59;7366930;19;20030;-58
2022/11/28 10:43:11;;;;;;;0.05;0.05;;;;;;;10.37;71.82;100024.84;7363183;19;20016;-58
2022/11/28 10:45:47;;;;;;;0.00;0.00;;;;;;;10.40;72.02;100022.16;7264641;19;2004329;-58
2022/11/28 10:48:34;;;;;;;0.00;0.00;;;;;;;10.43;72.09;100016.81;7364505;19;20014;-58
2022/11/28 10:51:27;;;;;;;0.00;0.00;;;;;;;10.50;71.72;100020.09;7364784;19;20027;-58
2022/11/28 10:54:01;;;;;;;0.08;0.08;;;;;;;10.50;71.62;100026.16;7262878;19;2004318;-57
2022/11/28 10:56:57;;;;;;;0.05;0.05;;;;;;;10.50;72.00;100034.00;7365265;19;20967;-57
2022/11/28 10:59:41;;;;;;;0.00;0.00;;;;;;;10.53;71.72;100052.16;7263494;19;2004474;-56
2022/11/28 11:02:28;;;;;;;0.00;0.00;;;;;;;10.50;71.62;100044.44;7366793;19;20427;-58
2022/11/28 11:04:54;;;;;;;0.03;0.03;;;;;;;10.53;72.06;100052.16;7365770;19;20469;-59
2022/11/28 11:07:27;;;;;;;0.00;0.00;;;;;;;10.45;72.33;100041.13;7365489;19;20030;-56
2022/11/28 11:09:52;;;;;;;0.00;0.00;;;;;;;10.59;72.08;100065.03;7364969;19;20006;-58
2022/11/28 11:12:25;;;;;;;0.08;0.08;;;;;;;10.66;72.29;100057.81;7367616;19;20020;-58
2022/11/28 11:14:51;;;;;;;0.10;0.10;;;;;;;10.63;72.76;100066.59;7361269;19;20097;-58
2022/11/28 11:17:25;;;;;;;0.03;0.03;;;;;;;10.90;72.69;100085.75;7364017;19;20078;-58
2022/11/28 11:19:50;;;;;;;0.00;0.00;;;;;;;11.00;72.70;100086.28;7362026;19;20014;-59
2022/11/28 11:22:23;;;;;;;0.00;0.00;;;;;;;11.15;72.39;100090.97;7365614;19;20699;-58
2022/11/28 11:25:15;;;;;;;0.10;0.10;;;;;;;11.24;72.15;100089.78;7362971;19;20017;-58
2022/11/28 11:27:54;;;;;;;0.00;0.00;;;;;;;11.39;71.67;100098.84;7260943;19;2004393;-57
2022/11/28 11:30:25;;;;;;;0.00;0.00;;;;;;;11.42;71.81;100110.06;7364832;19;20489;-58
2022/11/28 11:32:50;;;;;;;0.10;0.10;;;;;;;11.43;71.81;100116.13;7360935;19;20021;-58
2022/11/28 11:35:33;;;;;;;0.00;0.00;;;;;;;11.40;71.74;100111.88;7363041;19;25400;-57
2022/11/28 11:38:27;;;;;;;0.03;0.03;;;;;;;11.50;70.93;100117.59;7362414;19;20425;-57
2022/11/28 11:40:53;;;;;;;0.00;0.00;;;;;;;11.47;71.10;100115.13;7262133;19;2004471;-56
2022/11/28 11:43:31;;;;;;;0.08;0.08;;;;;;;11.50;71.36;100101.06;7363902;19;20007;-58
2022/11/28 11:46:15;;;;;;;0.00;0.00;;;;;;;11.54;71.05;100115.75;7361221;19;20014;-58
2022/11/28 11:48:51;;;;;;;0.00;0.00;;;;;;;11.57;71.46;100113.88;7361569;19;20038;-58
2022/11/28 11:51:25;;;;;;;0.05;0.05;;;;;;;11.62;71.03;100132.88;7362546;19;20006;-58
2022/11/28 11:54:13;;;;;;;0.10;0.10;;;;;;;11.62;70.88;100127.66;7362995;19;20002;-58
2022/11/28 11:56:43;;;;;;;0.10;0.10;;;;;;;11.66;70.74;100139.72;7362565;19;20018;-58
2022/11/28 11:59:41;;;;;;;0.00;0.00;;;;;;;11.63;70.75;100126.72;7362120;19;20013;-58